Terminal Aerodrome Forecast
Issued by NWS

Home | Current Version | Previous Version | Text Only | Print | Product List | Glossary On
Versions: 1 2 3 4 5 6 7 8 9 10 11 12 13 14 15 16 17 18 19
000
FTUS46 KLOX 302204 AAA
TAFSBA
TAF AMD
KSBA 302204Z 3022/0118 16012G18KT P6SM SKC
     FM010000 26015KT P6SM FEW040
     FM010200 32012G17KT P6SM SKC
     FM010600 VRB03KT P6SM SKC
     FM011200 12006KT P6SM OVC017=

USA.gov is the U.S. government's official web portal to all federal, state and local government web resources and services.